Terminal Aerodrome Forecast
Issued by NWS Paducah, KY

Home | Current Version | Previous Version | Text Only | Print | Product List | Glossary On
Versions: 1 2 3 4 5 6 7 8 9 10 11 12 13 14 15 16 17
484
FTUS43 KPAH 241559 AAB
TAFEVV
TAF AMD
KEVV 241559Z 2416/2512 34005KT P6SM -SHRA SCT008 BKN017 OVC060
      TEMPO 2416/2418 4SM RA BR BKN006
     FM241800 32007KT 4SM RA BR OVC015
     FM242100 31008KT 6SM -RA OVC035
     FM250600 28004KT P6SM BKN015=

USA.gov is the U.S. government's official web portal to all federal, state and local government web resources and services.